Time;durP1;ratioP1;P1;durP2;ratioP2;P2;SDS_P1;SDS_P2;PMS_P1;PMS_P2;Temp;Humidity;BMP_temperature;BMP_pressure;BME280_temperature;BME280_humidity;BME280_pressure;Samples;Min_cycle;Max_cycle;Signal;HPM_P1;HPM_P2
2023/01/10 00:01:14;;;;;;;5.25;1.80;;;;;;;18.84;41.86;101156.75;4992638;28;20041;-69
2023/01/10 00:03:39;;;;;;;5.07;1.40;;;;;;;18.78;41.62;101146.66;4998469;28;20037;-68
2023/01/10 00:06:04;;;;;;;5.38;1.50;;;;;;;18.79;41.84;101154.44;4984397;28;20034;-69
2023/01/10 00:08:30;;;;;;;4.85;1.52;;;;;;;18.80;41.68;101165.84;4990145;28;20034;-68
2023/01/10 00:10:55;;;;;;;5.53;1.85;;;;;;;18.77;41.77;101166.09;5003721;28;20068;-68
2023/01/10 00:13:23;;;;;;;6.63;2.05;;;;;;;18.78;41.73;101171.25;5002812;28;20041;-68
2023/01/10 00:15:50;;;;;;;6.05;2.15;;;;;;;18.76;41.56;101181.09;4993512;28;20031;-69
2023/01/10 00:18:15;;;;;;;5.63;2.20;;;;;;;18.74;41.51;101190.94;4992325;28;20390;-68
2023/01/10 00:20:43;;;;;;;5.57;2.00;;;;;;;18.69;41.59;101187.78;5001953;28;20041;-69
2023/01/10 00:23:08;;;;;;;5.93;1.92;;;;;;;18.72;41.53;101192.84;4987341;28;20419;-68
2023/01/10 00:25:35;;;;;;;3.72;1.63;;;;;;;18.68;41.35;101194.06;4987925;28;20050;-68
2023/01/10 00:28:18;;;;;;;4.97;1.58;;;;;;;18.68;41.43;101197.53;4990954;28;20073;-68
2023/01/10 00:30:47;;;;;;;6.32;1.80;;;;;;;18.66;41.24;101209.19;5002692;28;20050;-69
2023/01/10 00:33:18;;;;;;;5.43;1.50;;;;;;;18.70;41.36;101220.34;4998338;28;20088;-67
2023/01/10 00:35:43;;;;;;;4.10;1.70;;;;;;;18.63;41.35;101217.34;4989695;28;20046;-68
2023/01/10 00:38:09;;;;;;;4.63;1.60;;;;;;;18.58;41.19;101211.56;4984480;28;20711;-68
2023/01/10 00:40:34;;;;;;;5.03;1.80;;;;;;;18.63;41.08;101219.97;5003666;28;20033;-69
2023/01/10 00:45:45;;;;;;;5.35;1.88;;;;;;;18.62;41.09;101227.03;4993086;28;20056;-68
2023/01/10 00:48:15;;;;;;;4.93;1.70;;;;;;;18.60;41.40;101223.69;4983301;28;20125;-68
2023/01/10 00:50:41;;;;;;;4.93;1.85;;;;;;;18.61;41.13;101229.78;4988810;28;20148;-69
2023/01/10 00:53:06;;;;;;;4.97;1.50;;;;;;;18.58;40.92;101227.38;4996479;28;20526;-67
2023/01/10 00:55:34;;;;;;;5.82;2.13;;;;;;;18.59;40.89;101237.00;4998799;28;20542;-68
2023/01/10 00:57:59;;;;;;;4.95;1.75;;;;;;;18.57;40.94;101238.94;4994294;28;20475;-69
2023/01/10 01:00:25;;;;;;;5.90;1.92;;;;;;;18.55;40.89;101241.69;4998624;28;20080;-68
2023/01/10 01:02:50;;;;;;;5.95;1.70;;;;;;;18.56;40.79;101248.63;5002580;28;20089;-69
2023/01/10 01:05:16;;;;;;;5.15;1.75;;;;;;;18.52;40.83;101235.78;4989782;28;20034;-69
2023/01/10 01:07:41;;;;;;;4.60;1.60;;;;;;;18.51;40.93;101242.88;4989821;28;20044;-69
2023/01/10 01:10:26;;;;;;;7.80;2.17;;;;;;;18.49;40.67;101250.06;4990625;28;20030;-69
2023/01/10 01:12:53;;;;;;;5.60;1.90;;;;;;;18.52;40.73;101252.47;4992197;28;20529;-68
2023/01/10 01:15:18;;;;;;;5.28;1.80;;;;;;;18.49;40.82;101250.91;5001035;28;20120;-70
2023/01/10 01:17:43;;;;;;;5.28;2.00;;;;;;;18.46;40.72;101253.78;4994560;28;20192;-68
2023/01/10 01:20:09;;;;;;;5.75;2.30;;;;;;;18.47;41.04;101267.84;4997509;28;20030;-69
2023/01/10 01:22:35;;;;;;;6.00;2.20;;;;;;;18.45;40.86;101270.59;4987089;28;20475;-69
2023/01/10 01:25:00;;;;;;;6.85;2.30;;;;;;;18.48;40.98;101275.63;4991977;28;20050;-69
2023/01/10 01:27:25;;;;;;;6.80;2.30;;;;;;;18.44;41.04;101279.44;4993958;28;20030;-68
2023/01/10 01:29:51;;;;;;;6.67;3.47;;;;;;;18.45;40.59;101283.78;4993055;28;20034;-67
2023/01/10 01:32:16;;;;;;;5.50;2.55;;;;;;;18.43;40.95;101276.91;5000556;28;20743;-70
2023/01/10 01:34:41;;;;;;;4.93;2.22;;;;;;;18.42;40.88;101289.28;4994754;28;20117;-69
2023/01/10 01:37:07;;;;;;;7.85;2.70;;;;;;;18.41;40.87;101292.88;4996052;28;20144;-67
2023/01/10 01:39:32;;;;;;;6.22;2.47;;;;;;;18.43;40.84;101288.31;5001187;28;20115;-67
2023/01/10 01:41:59;;;;;;;6.60;2.60;;;;;;;18.41;40.69;101298.16;4989395;28;20085;-67
2023/01/10 01:44:30;;;;;;;5.93;2.50;;;;;;;18.41;40.94;101311.34;4983106;28;20097;-67
2023/01/10 01:47:06;;;;;;;7.50;2.70;;;;;;;18.43;41.08;101312.06;4989754;28;20033;-67
2023/01/10 01:49:39;;;;;;;6.68;2.75;;;;;;;18.41;40.95;101316.63;4989440;28;20100;-68
2023/01/10 01:52:09;;;;;;;6.63;2.47;;;;;;;18.40;40.76;101312.28;4983027;28;20085;-67
2023/01/10 01:54:36;;;;;;;6.88;2.58;;;;;;;18.37;40.71;101306.41;4998203;28;20042;-67
2023/01/10 01:57:24;;;;;;;6.20;2.38;;;;;;;18.39;40.73;101323.81;4992182;28;20045;-68
2023/01/10 01:59:52;;;;;;;5.00;2.20;;;;;;;18.36;40.78;101317.91;4990556;28;20532;-70
2023/01/10 02:02:24;;;;;;;7.72;2.53;;;;;;;18.36;40.70;101329.31;4991206;28;20109;-68
2023/01/10 02:04:55;;;;;;;5.10;2.25;;;;;;;18.32;40.54;101325.22;4991267;28;20026;-69
2023/01/10 02:07:23;;;;;;;5.47;2.38;;;;;;;18.32;40.49;101330.50;4995841;28;20038;-69
2023/01/10 02:10:02;;;;;;;7.07;2.72;;;;;;;18.32;40.71;101322.59;4985619;28;20034;-69
2023/01/10 02:12:30;;;;;;;5.15;2.20;;;;;;;18.32;40.73;101319.94;5001502;28;20038;-70
2023/01/10 02:14:56;;;;;;;6.55;2.42;;;;;;;18.33;40.79;101334.84;4999960;28;20478;-70
2023/01/10 02:17:22;;;;;;;5.43;2.00;;;;;;;18.33;40.83;101334.00;5000721;28;20033;-69
2023/01/10 02:19:55;;;;;;;6.57;2.40;;;;;;;18.33;40.98;101342.75;4999835;28;20034;-68
2023/01/10 02:22:58;;;;;;;5.03;2.05;;;;;;;18.34;40.88;101341.81;4989661;28;20045;-68
2023/01/10 02:26:19;;;;;;;5.93;2.28;;;;;;;18.33;40.75;101334.84;4988797;28;20025;-68
2023/01/10 02:29:02;;;;;;;5.50;2.03;;;;;;;18.31;40.92;101334.13;4976676;28;20046;-68
2023/01/10 02:31:39;;;;;;;5.82;2.10;;;;;;;18.30;40.91;101335.06;4965063;28;20047;-67
2023/01/10 02:34:33;;;;;;;5.47;2.30;;;;;;;18.31;40.72;101336.75;4979119;28;20054;-68
2023/01/10 02:37:07;;;;;;;8.02;2.63;;;;;;;18.30;40.88;101330.59;4984839;28;20042;-69
2023/01/10 02:39:43;;;;;;;6.22;2.58;;;;;;;18.26;40.70;101326.53;4989580;28;20474;-68
2023/01/10 02:42:15;;;;;;;6.35;2.40;;;;;;;18.28;40.66;101339.63;4999017;28;20040;-69
2023/01/10 02:44:52;;;;;;;5.38;2.05;;;;;;;18.27;40.55;101337.91;5001594;28;20040;-68
2023/01/10 02:47:17;;;;;;;6.18;2.05;;;;;;;18.23;40.85;101324.13;4996836;28;20099;-68
2023/01/10 02:49:49;;;;;;;5.45;2.03;;;;;;;18.21;40.57;101333.09;4991497;28;20054;-68
2023/01/10 02:52:22;;;;;;;5.30;2.10;;;;;;;18.25;40.58;101351.22;4995475;28;20056;-69
2023/01/10 02:54:52;;;;;;;6.15;2.05;;;;;;;18.24;40.56;101340.78;4995393;28;20220;-68
2023/01/10 02:57:49;;;;;;;8.25;2.13;;;;;;;18.22;40.68;101343.53;4995414;28;20470;-69
2023/01/10 03:00:31;;;;;;;6.28;2.10;;;;;;;18.20;40.81;101344.59;5002050;28;20065;-68
2023/01/10 03:03:17;;;;;;;5.22;1.90;;;;;;;18.24;40.74;101356.63;4999855;28;20653;-68
2023/01/10 03:05:54;;;;;;;5.65;2.53;;;;;;;18.22;40.44;101355.91;5003507;28;20037;-68
2023/01/10 03:08:58;;;;;;;5.65;2.20;;;;;;;18.23;40.65;101366.34;5005832;28;20038;-69
2023/01/10 03:11:41;;;;;;;5.60;2.03;;;;;;;18.19;40.57;101366.66;5004247;28;20048;-68
2023/01/10 03:14:27;;;;;;;6.53;2.05;;;;;;;18.18;40.63;101368.44;4997220;28;20442;-67
2023/01/10 03:16:58;;;;;;;7.72;2.42;;;;;;;18.18;40.54;101371.09;5004793;28;20036;-66
2023/01/10 03:19:28;;;;;;;5.05;2.08;;;;;;;18.16;40.51;101367.72;4991301;28;20376;-68
2023/01/10 03:21:56;;;;;;;6.05;2.13;;;;;;;18.19;40.61;101385.97;4994134;28;20084;-68
2023/01/10 03:24:30;;;;;;;6.63;2.10;;;;;;;18.17;40.52;101393.16;5000124;28;20046;-67
2023/01/10 03:27:13;;;;;;;5.57;1.88;;;;;;;18.16;40.39;101395.91;4993688;28;20040;-67
2023/01/10 03:29:50;;;;;;;6.80;2.00;;;;;;;18.13;40.61;101387.28;4985088;28;20085;-68
2023/01/10 03:32:22;;;;;;;5.03;1.58;;;;;;;18.15;40.65;101396.84;4984752;28;20041;-68
2023/01/10 03:34:48;;;;;;;6.75;2.03;;;;;;;18.13;40.40;101400.47;5002784;28;20038;-68
2023/01/10 03:37:41;;;;;;;5.63;1.65;;;;;;;18.13;40.38;101408.38;4994726;28;20050;-68
2023/01/10 03:40:21;;;;;;;6.18;2.00;;;;;;;18.11;40.43;101405.00;4987172;28;20108;-68
2023/01/10 03:45:48;;;;;;;5.70;1.77;;;;;;;18.12;40.15;101419.88;4991837;28;20073;-68
2023/01/10 03:48:15;;;;;;;7.05;2.17;;;;;;;18.08;40.37;101414.94;4984516;28;20034;-69
2023/01/10 03:50:43;;;;;;;6.18;1.92;;;;;;;18.09;40.48;101422.72;5000024;28;20413;-67
2023/01/10 03:53:11;;;;;;;5.80;1.92;;;;;;;18.07;40.48;101413.22;5000023;28;20045;-69
2023/01/10 03:55:39;;;;;;;4.57;1.88;;;;;;;18.10;40.43;101424.44;4990787;28;20490;-68
2023/01/10 03:58:04;;;;;;;5.25;1.90;;;;;;;18.10;40.61;101436.75;4999948;28;20029;-68
2023/01/10 04:00:30;;;;;;;5.43;1.67;;;;;;;18.09;40.47;101443.00;4991624;28;20026;-68
2023/01/10 04:02:57;;;;;;;6.47;2.10;;;;;;;18.06;40.61;101435.31;4998072;28;20052;-68
2023/01/10 04:05:23;;;;;;;6.80;1.83;;;;;;;18.06;40.32;101438.78;4990012;28;20042;-68
2023/01/10 04:07:48;;;;;;;6.55;1.90;;;;;;;18.07;40.53;101443.09;4989390;28;20038;-68
2023/01/10 04:10:13;;;;;;;6.57;1.80;;;;;;;18.08;40.42;101442.13;5003909;28;20072;-68
2023/01/10 04:12:39;;;;;;;7.63;2.05;;;;;;;18.09;40.37;101448.28;4993674;28;20129;-68
2023/01/10 04:15:05;;;;;;;6.10;1.80;;;;;;;18.07;40.38;101447.50;4994217;28;20061;-68
2023/01/10 04:17:30;;;;;;;6.18;1.83;;;;;;;18.04;40.20;101448.59;4995753;28;20773;-67
2023/01/10 04:19:55;;;;;;;5.90;1.70;;;;;;;18.03;40.51;101452.19;4984507;28;20320;-67
2023/01/10 04:22:20;;;;;;;5.40;1.90;;;;;;;18.04;40.31;101461.78;4989903;28;20033;-68
2023/01/10 04:24:47;;;;;;;5.95;1.75;;;;;;;18.06;40.54;101466.94;4988894;28;20278;-69
2023/01/10 04:27:12;;;;;;;5.57;1.90;;;;;;;18.00;40.53;101462.94;4987533;28;20109;-68
2023/01/10 04:29:38;;;;;;;5.00;2.03;;;;;;;18.05;40.44;101475.81;4990265;28;20511;-68
2023/01/10 04:32:03;;;;;;;7.10;1.77;;;;;;;18.04;40.51;101463.56;4995065;28;20046;-68
2023/01/10 04:34:28;;;;;;;4.97;1.73;;;;;;;18.05;40.37;101476.63;4996910;28;20040;-68
2023/01/10 04:36:54;;;;;;;7.07;1.98;;;;;;;18.02;40.37;101465.47;4989196;28;20183;-68
2023/01/10 04:39:19;;;;;;;6.80;1.98;;;;;;;18.01;40.19;101455.88;4999934;28;20030;-68
2023/01/10 04:41:44;;;;;;;5.97;1.75;;;;;;;18.04;40.30;101468.84;4990485;28;20046;-67
2023/01/10 04:44:10;;;;;;;7.07;1.93;;;;;;;18.00;40.39;101456.84;4989939;28;20034;-68
2023/01/10 04:46:35;;;;;;;6.50;1.90;;;;;;;18.00;40.48;101460.31;4994505;28;20277;-68
2023/01/10 04:49:00;;;;;;;6.30;1.88;;;;;;;18.03;40.35;101477.72;4988688;28;20031;-68
2023/01/10 04:51:27;;;;;;;5.50;1.85;;;;;;;18.01;40.38;101487.50;4987103;28;20038;-68
2023/01/10 04:53:53;;;;;;;6.53;2.15;;;;;;;17.98;40.35;101495.66;4989733;28;20044;-68
2023/01/10 04:56:20;;;;;;;7.07;2.10;;;;;;;17.99;40.26;101490.28;4982144;28;20035;-68
2023/01/10 04:58:47;;;;;;;10.50;2.20;;;;;;;18.00;40.35;101488.47;4983238;28;20403;-67
2023/01/10 05:01:24;;;;;;;6.70;1.70;;;;;;;17.98;40.46;101469.28;4993267;28;20077;-68
2023/01/10 05:03:51;;;;;;;6.97;1.92;;;;;;;17.98;40.39;101467.50;4983678;28;20030;-68
2023/01/10 05:06:17;;;;;;;5.32;1.63;;;;;;;17.94;40.26;101466.00;4991618;28;20038;-68
2023/01/10 05:08:43;;;;;;;6.22;2.08;;;;;;;17.95;40.15;101483.53;4982578;28;20030;-67
2023/01/10 05:11:09;;;;;;;7.75;2.00;;;;;;;17.94;40.31;101485.34;4988041;28;20041;-68
2023/01/10 05:13:34;;;;;;;8.73;2.15;;;;;;;17.94;40.07;101493.25;4983129;28;20076;-67
2023/01/10 05:16:00;;;;;;;5.80;1.88;;;;;;;17.94;40.12;101505.56;4986414;28;20835;-68
2023/01/10 05:18:26;;;;;;;8.18;2.03;;;;;;;17.94;40.18;101529.31;4993468;28;20399;-68
2023/01/10 05:20:52;;;;;;;6.35;2.10;;;;;;;17.94;40.22;101537.22;4989088;28;20045;-68
2023/01/10 05:23:17;;;;;;;6.28;1.98;;;;;;;17.92;40.15;101537.31;5001662;28;20029;-68
2023/01/10 05:25:42;;;;;;;7.63;2.15;;;;;;;17.92;40.31;101539.13;4991895;28;20113;-67
2023/01/10 05:28:08;;;;;;;9.13;2.28;;;;;;;17.92;40.25;101534.69;4987037;28;20088;-68
2023/01/10 05:30:33;;;;;;;7.22;2.20;;;;;;;17.94;40.24;101539.84;4996115;28;20571;-67
2023/01/10 05:32:59;;;;;;;6.97;1.98;;;;;;;17.93;40.17;101546.09;4991829;28;20112;-67
2023/01/10 05:35:24;;;;;;;7.65;2.33;;;;;;;17.93;39.98;101546.09;4999192;28;20046;-67
2023/01/10 05:37:51;;;;;;;7.82;2.00;;;;;;;17.92;40.19;101533.84;4989867;28;20055;-68
2023/01/10 05:40:16;;;;;;;7.35;2.00;;;;;;;17.92;40.23;101545.22;4984810;28;20030;-67
2023/01/10 05:42:42;;;;;;;9.57;2.47;;;;;;;17.89;40.30;101532.25;4990734;28;20398;-68
2023/01/10 05:45:07;;;;;;;8.38;2.28;;;;;;;17.88;40.04;101532.34;4998548;28;20038;-67
2023/01/10 05:47:33;;;;;;;7.60;1.92;;;;;;;17.88;40.32;101549.06;4996658;28;20038;-68
2023/01/10 05:49:58;;;;;;;6.38;2.00;;;;;;;17.94;40.66;101550.41;5002535;28;20038;-68
2023/01/10 05:52:23;;;;;;;6.63;1.73;;;;;;;17.94;41.05;101560.94;4997025;28;20084;-69
2023/01/10 05:54:49;;;;;;;6.40;1.80;;;;;;;17.96;41.24;101564.34;4991342;28;20510;-69
2023/01/10 05:57:14;;;;;;;5.78;1.85;;;;;;;17.95;40.97;101566.13;4981814;28;20386;-68
2023/01/10 05:59:39;;;;;;;6.95;1.60;;;;;;;18.00;40.88;101571.06;4982246;28;20489;-68
2023/01/10 06:02:05;;;;;;;6.22;1.92;;;;;;;18.03;40.87;101564.75;4987260;28;20543;-68
2023/01/10 06:04:30;;;;;;;6.72;1.70;;;;;;;18.08;41.07;101570.56;4984907;28;20085;-68
2023/01/10 06:06:55;;;;;;;7.33;1.60;;;;;;;18.13;40.83;101571.94;5001257;28;20546;-69
2023/01/10 06:09:20;;;;;;;5.57;1.70;;;;;;;18.17;40.67;101577.00;4996579;28;20264;-67
2023/01/10 06:11:46;;;;;;;4.97;1.65;;;;;;;18.19;40.67;101570.63;4981857;28;20458;-67
2023/01/10 06:14:11;;;;;;;5.50;1.75;;;;;;;18.23;40.42;101574.75;4994999;28;20026;-68
2023/01/10 06:16:36;;;;;;;5.80;1.67;;;;;;;18.26;40.70;101564.00;4997857;28;20505;-69
2023/01/10 06:19:02;;;;;;;5.65;1.83;;;;;;;18.25;40.34;101564.94;5001424;28;20036;-68
2023/01/10 06:21:27;;;;;;;6.25;1.80;;;;;;;18.28;40.44;101570.00;5000703;28;20034;-68
2023/01/10 06:23:52;;;;;;;6.97;1.90;;;;;;;18.26;40.58;101566.63;4981886;28;20475;-68
2023/01/10 06:26:18;;;;;;;7.32;1.88;;;;;;;18.34;40.59;101573.16;4992214;28;20030;-68
2023/01/10 06:28:43;;;;;;;5.18;1.73;;;;;;;18.33;40.39;101577.59;5002424;28;20038;-69
2023/01/10 06:31:09;;;;;;;6.53;1.70;;;;;;;18.36;40.47;101576.50;5004307;28;20103;-68
2023/01/10 06:33:37;;;;;;;6.40;2.08;;;;;;;18.31;40.67;101572.44;4998682;28;20029;-68
2023/01/10 06:36:03;;;;;;;8.25;2.20;;;;;;;18.34;40.52;101579.28;4985877;28;20038;-67
2023/01/10 06:38:28;;;;;;;6.15;1.60;;;;;;;18.39;40.52;101584.22;4989617;28;20050;-70
2023/01/10 06:40:54;;;;;;;5.03;1.92;;;;;;;18.41;40.58;101592.88;5000158;28;20049;-68
2023/01/10 06:43:19;;;;;;;5.32;1.70;;;;;;;18.41;40.37;101579.69;5001286;28;20127;-67
2023/01/10 06:45:44;;;;;;;7.07;1.90;;;;;;;18.41;40.38;101590.25;4995433;28;20276;-68
2023/01/10 06:48:09;;;;;;;5.25;1.55;;;;;;;18.39;40.22;101587.72;4991487;28;20034;-69
2023/01/10 06:50:35;;;;;;;6.60;1.83;;;;;;;18.47;40.13;101592.47;5000014;28;20143;-69
2023/01/10 06:53:02;;;;;;;6.53;1.98;;;;;;;18.45;40.37;101596.97;4985942;28;20403;-69
2023/01/10 06:55:28;;;;;;;6.03;1.90;;;;;;;18.49;40.07;101606.38;4991465;28;20029;-69
2023/01/10 06:57:55;;;;;;;6.93;1.70;;;;;;;18.48;40.24;101618.75;5005129;28;20034;-70
2023/01/10 07:00:21;;;;;;;6.50;2.00;;;;;;;18.51;40.20;101627.41;5004846;28;20041;-69
2023/01/10 07:02:46;;;;;;;5.53;1.75;;;;;;;18.53;40.12;101628.94;4994666;28;20037;-70
2023/01/10 07:05:11;;;;;;;5.88;2.22;;;;;;;18.49;40.15;101614.31;4985737;28;20042;-69
2023/01/10 07:07:37;;;;;;;5.88;1.60;;;;;;;18.54;40.24;101635.09;4995130;28;20138;-70
2023/01/10 07:10:02;;;;;;;6.57;2.20;;;;;;;18.49;40.34;101632.78;4994351;28;20030;-71
2023/01/10 07:12:28;;;;;;;9.05;2.10;;;;;;;18.50;40.26;101639.75;4987545;28;20445;-69
2023/01/10 07:14:53;;;;;;;6.72;1.80;;;;;;;18.47;40.44;101645.25;4996808;28;20079;-68
2023/01/10 07:17:18;;;;;;;6.95;2.05;;;;;;;18.56;40.59;101662.22;5000019;28;20587;-71
2023/01/10 07:19:44;;;;;;;8.23;2.20;;;;;;;18.55;40.51;101663.16;4992976;28;20064;-71
2023/01/10 07:22:10;;;;;;;8.13;1.83;;;;;;;18.53;40.53;101646.59;4994890;28;20149;-69
2023/01/10 07:24:36;;;;;;;6.28;1.92;;;;;;;18.56;40.85;101665.69;4992269;28;20303;-72
2023/01/10 07:27:01;;;;;;;7.73;2.10;;;;;;;18.58;40.77;101661.19;4995190;28;20069;-71
2023/01/10 07:29:26;;;;;;;5.72;1.80;;;;;;;18.52;40.75;101656.31;5000861;28;21068;-71
2023/01/10 07:31:51;;;;;;;7.35;2.20;;;;;;;18.53;40.85;101665.91;4997610;28;20113;-71
2023/01/10 07:34:17;;;;;;;8.35;2.25;;;;;;;18.55;40.91;101671.09;4994535;28;20041;-71
2023/01/10 07:36:42;;;;;;;6.75;1.98;;;;;;;18.49;40.89;101673.22;4997936;28;20077;-71
2023/01/10 07:39:07;;;;;;;6.95;1.85;;;;;;;18.54;41.04;101693.16;5002755;28;20069;-69
2023/01/10 07:41:33;;;;;;;6.97;1.90;;;;;;;18.55;41.13;101692.19;4992610;28;20471;-69
2023/01/10 07:43:58;;;;;;;8.88;2.40;;;;;;;18.55;41.08;101684.28;4996006;28;20072;-70
2023/01/10 07:46:24;;;;;;;6.95;1.75;;;;;;;18.55;41.16;101685.16;4999238;28;20137;-68
2023/01/10 07:48:50;;;;;;;7.35;1.80;;;;;;;18.54;41.43;101688.72;4984663;28;20057;-68
2023/01/10 07:51:15;;;;;;;7.25;1.88;;;;;;;18.56;41.13;101692.09;4988863;28;20489;-69
2023/01/10 07:53:40;;;;;;;6.53;1.63;;;;;;;18.59;41.42;101701.59;4995707;28;20084;-69
2023/01/10 07:56:06;;;;;;;7.88;2.03;;;;;;;18.55;41.13;101698.34;4992763;28;20081;-69
2023/01/10 07:58:32;;;;;;;7.13;1.90;;;;;;;18.57;41.07;101699.06;5001727;28;20040;-69
2023/01/10 08:01:02;;;;;;;8.00;2.53;;;;;;;18.59;41.45;101707.72;4989075;28;20489;-69
2023/01/10 08:03:28;;;;;;;7.03;2.20;;;;;;;18.60;41.37;101704.13;4990808;28;20030;-70
2023/01/10 08:06:05;;;;;;;7.35;2.22;;;;;;;18.60;41.59;101698.03;5014323;28;20065;-69
2023/01/10 08:08:32;;;;;;;5.97;1.98;;;;;;;18.60;41.34;101693.59;4998264;28;20458;-69
2023/01/10 08:11:01;;;;;;;7.47;1.90;;;;;;;18.59;41.26;101696.31;4992782;28;20030;-67
2023/01/10 08:13:27;;;;;;;5.78;1.70;;;;;;;18.61;41.20;101695.28;4995768;28;20041;-69
2023/01/10 08:15:52;;;;;;;6.25;2.08;;;;;;;18.63;40.98;101697.81;4994908;28;20081;-72
2023/01/10 08:18:20;;;;;;;8.07;2.00;;;;;;;18.66;41.11;101702.88;4989145;28;20394;-66
2023/01/10 08:20:47;;;;;;;6.07;2.20;;;;;;;18.64;40.77;101689.78;4989075;28;20475;-68
2023/01/10 08:23:13;;;;;;;8.05;2.35;;;;;;;18.60;40.90;101688.31;4998650;28;20038;-67
2023/01/10 08:25:38;;;;;;;9.00;2.38;;;;;;;18.62;40.83;101702.22;4986733;28;21033;-68
2023/01/10 08:28:04;;;;;;;7.70;2.45;;;;;;;18.59;40.77;101689.25;4996616;28;20034;-68
2023/01/10 08:30:29;;;;;;;7.20;1.83;;;;;;;18.58;40.83;101697.28;4991430;28;20038;-68
2023/01/10 08:32:54;;;;;;;8.23;2.95;;;;;;;18.60;40.65;101706.78;4997427;28;20047;-68
2023/01/10 08:35:20;;;;;;;8.35;1.88;;;;;;;18.56;40.49;101699.19;4994398;28;20038;-68
2023/01/10 08:37:45;;;;;;;7.68;1.85;;;;;;;18.60;40.90;101708.59;4983224;28;20064;-69
2023/01/10 08:40:11;;;;;;;8.98;2.55;;;;;;;18.59;40.83;101701.59;4997718;28;20061;-68
2023/01/10 08:42:36;;;;;;;7.00;2.10;;;;;;;18.59;40.66;101707.72;4990411;28;20043;-68
2023/01/10 08:45:01;;;;;;;7.43;2.10;;;;;;;18.58;40.54;101697.28;4994411;28;20077;-68
2023/01/10 08:47:27;;;;;;;7.90;2.17;;;;;;;18.58;40.51;101699.91;4985319;28;20111;-69
2023/01/10 08:49:52;;;;;;;7.03;1.73;;;;;;;18.58;40.58;101705.19;4996834;28;20064;-68
2023/01/10 08:52:18;;;;;;;6.72;1.85;;;;;;;18.57;40.56;101699.06;4989521;28;20026;-69
2023/01/10 08:54:43;;;;;;;6.75;1.92;;;;;;;18.53;40.81;101697.59;5002676;28;20056;-70
2023/01/10 08:57:08;;;;;;;7.37;2.33;;;;;;;18.56;40.47;101693.91;5001246;28;20489;-69
2023/01/10 08:59:34;;;;;;;9.05;1.90;;;;;;;18.55;40.48;101700.97;4996888;28;20263;-69
2023/01/10 09:01:59;;;;;;;6.78;1.92;;;;;;;18.58;40.60;101694.63;4990613;28;20410;-69
2023/01/10 09:04:27;;;;;;;6.57;1.75;;;;;;;18.60;40.48;101700.66;4987605;28;20042;-67
2023/01/10 09:06:53;;;;;;;7.75;1.85;;;;;;;18.59;40.49;101696.31;4999338;28;20107;-69
2023/01/10 09:09:18;;;;;;;7.20;1.92;;;;;;;18.59;40.56;101693.69;4998815;28;20033;-69
2023/01/10 09:11:43;;;;;;;6.53;1.67;;;;;;;18.56;40.16;101683.34;4994078;28;20470;-70
2023/01/10 09:14:09;;;;;;;7.32;2.28;;;;;;;18.57;40.49;101693.78;4999781;28;20039;-69
2023/01/10 09:16:34;;;;;;;6.60;2.03;;;;;;;18.59;40.36;101685.78;4982763;28;20475;-69
2023/01/10 09:18:59;;;;;;;8.25;2.20;;;;;;;18.59;40.25;101686.59;4997946;28;20133;-70
2023/01/10 09:21:26;;;;;;;7.55;2.38;;;;;;;18.58;40.19;101684.06;4993253;28;20039;-70
2023/01/10 09:23:51;;;;;;;6.70;1.80;;;;;;;18.59;40.37;101693.69;4987917;28;20044;-69
2023/01/10 09:26:17;;;;;;;7.67;2.00;;;;;;;18.57;40.23;101682.41;4990291;28;20034;-67
2023/01/10 09:28:42;;;;;;;8.23;2.25;;;;;;;18.58;40.18;101682.28;4992779;28;20799;-68
2023/01/10 09:31:07;;;;;;;6.03;1.75;;;;;;;18.50;40.35;101682.00;4997397;28;20117;-68
2023/01/10 09:33:33;;;;;;;8.13;2.13;;;;;;;18.59;40.42;101683.97;4996269;28;20092;-68
2023/01/10 09:35:59;;;;;;;7.38;2.17;;;;;;;18.58;40.37;101682.28;4998162;28;20025;-67
2023/01/10 09:38:24;;;;;;;4.80;1.48;;;;;;;18.58;40.31;101682.28;5001709;28;20549;-68
2023/01/10 09:41:09;;;;;;;5.03;1.63;;;;;;;18.61;40.23;101682.09;4990152;28;20069;-68
2023/01/10 09:44:02;;;;;;;6.70;2.05;;;;;;;18.61;40.16;101668.88;4984360;28;20030;-67
2023/01/10 09:46:56;;;;;;;8.60;2.92;;;;;;;18.61;40.23;101683.84;4983484;28;20042;-67
2023/01/10 09:49:35;;;;;;;5.00;1.50;;;;;;;18.61;40.27;101683.84;4982390;28;20073;-68
2023/01/10 09:52:07;;;;;;;7.15;1.90;;;;;;;18.60;40.07;101683.03;4982451;28;20525;-68
2023/01/10 09:54:39;;;;;;;5.85;1.80;;;;;;;18.59;40.18;101680.50;4993959;28;20038;-68
2023/01/10 09:57:05;;;;;;;6.88;1.70;;;;;;;18.62;40.43;101675.00;4994420;28;20500;-69
2023/01/10 09:59:40;;;;;;;7.30;2.20;;;;;;;18.59;40.64;101672.56;4989349;28;20038;-67
2023/01/10 10:02:29;;;;;;;5.53;1.98;;;;;;;18.63;40.81;101677.53;4985591;28;20038;-68
2023/01/10 10:05:17;;;;;;;6.85;1.98;;;;;;;18.64;40.90;101681.88;4986986;28;20045;-69
2023/01/10 10:07:42;;;;;;;6.07;2.00;;;;;;;18.62;41.06;101680.28;4993910;28;20029;-69
2023/01/10 10:10:17;;;;;;;7.40;1.95;;;;;;;18.61;41.16;101678.56;4986488;28;20100;-69
2023/01/10 10:12:52;;;;;;;8.00;2.13;;;;;;;18.64;41.44;101681.88;4986179;28;20041;-69
2023/01/10 10:15:45;;;;;;;6.20;1.88;;;;;;;18.63;41.41;101672.25;4996340;28;20080;-69
2023/01/10 10:18:20;;;;;;;6.35;1.73;;;;;;;18.65;41.83;101666.88;4994364;28;20450;-71
2023/01/10 10:21:20;;;;;;;6.78;1.60;;;;;;;18.69;41.76;101657.75;4987647;28;20030;-69
2023/01/10 10:24:16;;;;;;;6.45;1.65;;;;;;;18.65;41.97;101653.66;4991378;28;20430;-69
2023/01/10 10:26:56;;;;;;;9.73;2.67;;;;;;;18.68;41.99;101669.28;4997227;28;20045;-69
2023/01/10 10:29:33;;;;;;;9.35;2.00;;;;;;;18.69;41.94;101665.66;4993357;28;20030;-69
2023/01/10 10:32:20;;;;;;;8.18;2.03;;;;;;;18.65;42.23;101659.78;4981819;28;20030;-70
2023/01/10 10:34:53;;;;;;;8.15;2.08;;;;;;;18.68;42.32;101658.72;5001074;28;20540;-70
2023/01/10 10:37:20;;;;;;;6.53;1.75;;;;;;;18.68;42.26;101654.28;5001123;28;20096;-69
2023/01/10 10:40:06;;;;;;;8.68;2.10;;;;;;;18.68;42.50;101648.16;4991863;28;20041;-69
2023/01/10 10:42:38;;;;;;;5.97;1.67;;;;;;;18.69;42.43;101639.28;4981856;28;20045;-69
2023/01/10 10:45:47;;;;;;;8.05;2.00;;;;;;;18.73;42.53;101639.91;4996713;28;20100;-68
2023/01/10 10:48:21;;;;;;;7.00;1.77;;;;;;;18.67;42.65;101620.94;4986433;28;20523;-70
2023/01/10 10:51:00;;;;;;;9.32;1.98;;;;;;;18.70;42.85;101621.66;4995228;28;20052;-72
2023/01/10 10:53:27;;;;;;;8.82;1.95;;;;;;;18.71;42.73;101618.03;4993383;28;20029;-72
2023/01/10 10:55:52;;;;;;;9.98;2.38;;;;;;;18.74;43.22;101617.81;4992985;28;20045;-73
2023/01/10 10:58:18;;;;;;;9.63;1.92;;;;;;;18.79;43.16;101610.44;4993547;28;20030;-74
2023/01/10 11:00:43;;;;;;;10.38;2.33;;;;;;;18.84;43.25;101616.25;4988892;28;21167;-73
2023/01/10 11:03:24;;;;;;;6.45;1.83;;;;;;;18.82;43.34;101605.78;4990940;28;20030;-74
2023/01/10 11:05:50;;;;;;;8.02;1.90;;;;;;;18.86;43.16;101601.13;4997644;28;20136;-73
2023/01/10 11:08:18;;;;;;;5.68;1.98;;;;;;;18.82;43.53;101591.72;4993826;28;20152;-73
2023/01/10 11:10:49;;;;;;;7.78;2.13;;;;;;;18.85;43.42;101588.91;4990831;28;20493;-72
2023/01/10 11:13:34;;;;;;;10.40;1.88;;;;;;;18.89;43.69;101590.34;4997367;28;20030;-73
2023/01/10 11:16:01;;;;;;;8.40;2.38;;;;;;;18.89;43.47;101587.72;4997558;28;20026;-73
2023/01/10 11:18:29;;;;;;;8.98;1.95;;;;;;;18.87;43.50;101580.84;4993620;28;20475;-71
2023/01/10 11:21:01;;;;;;;5.47;1.70;;;;;;;18.87;43.44;101572.91;4985826;28;20034;-68
2023/01/10 11:23:39;;;;;;;7.10;2.33;;;;;;;18.97;43.75;101585.34;4993311;28;20394;-70
2023/01/10 11:26:08;;;;;;;8.85;2.65;;;;;;;18.94;42.22;101574.16;4990780;28;20112;-70
2023/01/10 11:28:35;;;;;;;10.73;2.30;;;;;;;18.95;42.02;101578.50;4986115;28;20032;-69
2023/01/10 11:31:02;;;;;;;8.27;2.08;;;;;;;18.93;42.74;101583.03;4990508;28;20478;-70
2023/01/10 11:33:38;;;;;;;8.65;2.28;;;;;;;18.92;43.29;101574.28;4989141;28;20030;-68
2023/01/10 11:36:11;;;;;;;9.13;2.40;;;;;;;18.95;43.65;101578.50;4996643;28;20062;-69
2023/01/10 11:38:37;;;;;;;7.82;2.25;;;;;;;18.96;43.63;101567.81;4999751;28;20119;-68
2023/01/10 11:41:15;;;;;;;7.70;2.05;;;;;;;18.90;43.92;101567.41;4990036;28;20038;-69